Aviation Digital Data Service (ADDS)

Output produced by METARs form (0617 UTC 23 September 2014)
found at http://aviationweather.gov/adds/metars/
 
KBPT 230553Z AUTO 05008KT 10SM CLR 22/13 A3008 RMK AO2 SLP185 T02220133 10278 20222 403280217 51006